Time;durP1;ratioP1;P1;durP2;ratioP2;P2;SDS_P1;SDS_P2;PMS_P1;PMS_P2;Temp;Humidity;BMP_temperature;BMP_pressure;BME280_temperature;BME280_humidity;BME280_pressure;Samples;Min_cycle;Max_cycle;Signal;HPM_P1;HPM_P2
2021/08/11 00:01:11;;;;;;;;;;;;;;;16.64;100.00;100144.86;1636270;85;20168;-85
2021/08/11 00:03:37;;;;;;;;;;;;;;;16.60;100.00;100148.96;1641250;85;21068;-85
2021/08/11 00:06:02;;;;;;;;;;;;;;;16.60;100.00;100139.11;1638930;85;20343;-85
2021/08/11 00:08:28;;;;;;;;;;;;;;;16.70;100.00;100138.75;1632681;87;20516;-85
2021/08/11 00:10:54;;;;;;;;;;;;;;;16.79;100.00;100144.23;1638781;87;20183;-85
2021/08/11 00:13:19;;;;;;;;;;;;;;;16.71;100.00;100147.59;1625816;87;20173;-85
2021/08/11 00:15:45;;;;;;;;;;;;;;;16.75;100.00;100149.67;1631232;87;21942;-85
2021/08/11 00:18:11;;;;;;;;;;;;;;;16.74;100.00;100149.34;1601791;87;20340;-85
2021/08/11 00:20:36;;;;;;;;;;;;;;;16.77;100.00;100144.95;1599344;87;20267;-85
2021/08/11 00:23:02;;;;;;;;;;;;;;;16.80;100.00;100144.56;1631401;85;21251;-84
2021/08/11 00:25:28;;;;;;;;;;;;;;;16.87;100.00;100139.28;1633252;87;20192;-85
2021/08/11 00:27:54;;;;;;;;;;;;;;;16.95;100.00;100147.62;1632298;87;21093;-85
2021/08/11 00:30:19;;;;;;;;;;;;;;;16.94;100.00;100142.00;1631610;85;20225;-85
2021/08/11 00:32:45;;;;;;;;;;;;;;;16.94;100.00;100139.33;1626647;85;20196;-85
2021/08/11 00:35:11;;;;;;;;;;;;;;;16.98;100.00;100141.41;1681991;83;20144;-86
2021/08/11 00:37:36;;;;;;;;;;;;;;;16.94;100.00;100138.00;1689694;84;20154;-85
2021/08/11 00:40:04;;;;;;;;;;;;;;;17.02;100.00;100143.16;1682992;84;21902;-86
2021/08/11 00:42:29;;;;;;;;;;;;;;;16.99;100.00;100144.89;1680655;84;20676;-86
2021/08/11 00:44:55;;;;;;;;;;;;;;;17.01;100.00;100146.34;1672587;84;20783;-86
2021/08/11 00:47:21;;;;;;;;;;;;;;;17.04;100.00;100139.77;1683778;84;20145;-86
2021/08/11 00:49:47;;;;;;;;;;;;;;;17.14;100.00;100137.56;1677221;84;20249;-85
2021/08/11 00:52:12;;;;;;;;;;;;;;;17.20;100.00;100138.10;1681127;84;21029;-86
2021/08/11 00:54:38;;;;;;;;;;;;;;;17.12;100.00;100136.95;1690028;83;20229;-87
2021/08/11 00:57:08;;;;;;;;;;;;;;;17.15;100.00;100144.56;1683770;83;20148;-86
2021/08/11 00:59:36;;;;;;;;;;;;;;;16.95;100.00;100151.14;1675489;84;20134;-86
2021/08/11 01:02:02;;;;;;;;;;;;;;;16.88;100.00;100146.80;1685316;84;20127;-86
2021/08/11 01:04:27;;;;;;;;;;;;;;;16.97;100.00;100133.61;1683780;84;20996;-86
2021/08/11 01:06:54;;;;;;;;;;;;;;;17.05;100.00;100132.09;1681519;84;20262;-87
2021/08/11 01:09:19;;;;;;;;;;;;;;;16.94;100.00;100133.48;1678772;84;20208;-86
2021/08/11 01:11:45;;;;;;;;;;;;;;;17.03;100.00;100131.48;1682242;84;20126;-85
2021/08/11 01:14:12;;;;;;;;;;;;;;;17.09;100.00;100136.02;1679588;83;20267;-85
2021/08/11 01:16:38;;;;;;;;;;;;;;;17.08;100.00;100137.55;1675703;84;21274;-85
2021/08/11 01:19:03;;;;;;;;;;;;;;;17.07;100.00;100135.89;1678170;83;20158;-86
2021/08/11 01:21:32;;;;;;;;;;;;;;;17.11;100.00;100119.28;1684753;84;20179;-86
2021/08/11 01:24:13;;;;;;;;;;;;;;;17.15;100.00;100124.55;1680970;83;20137;-86
2021/08/11 01:27:09;;;;;;;;;;;;;;;17.13;100.00;100130.58;1682986;84;20564;-85
2021/08/11 01:30:08;;;;;;;;;;;;;;;17.18;100.00;100136.16;1678728;84;21205;-86
2021/08/11 01:32:50;;;;;;;;;;;;;;;17.05;100.00;100133.42;1680280;84;20182;-86
2021/08/11 01:35:18;;;;;;;;;;;;;;;17.13;100.00;100134.58;1680398;84;20144;-86
2021/08/11 01:37:43;;;;;;;;;;;;;;;17.30;100.00;100135.56;1676736;84;20364;-86
2021/08/11 01:40:10;;;;;;;;;;;;;;;17.21;100.00;100130.42;1680196;84;20168;-86
2021/08/11 01:42:37;;;;;;;;;;;;;;;17.18;100.00;100130.82;1680612;84;21626;-86
2021/08/11 01:45:09;;;;;;;;;;;;;;;17.20;100.00;100126.09;1680114;84;20185;-86
2021/08/11 01:47:40;;;;;;;;;;;;;;;17.27;100.00;100125.30;1680198;84;20121;-86
2021/08/11 01:50:07;;;;;;;;;;;;;;;17.38;100.00;100127.37;1677285;84;20124;-85
2021/08/11 01:52:36;;;;;;;;;;;;;;;17.34;100.00;100126.11;1677574;84;20548;-86
2021/08/11 01:55:00;;;;;;;;;;;;;;;17.32;100.00;100129.50;1678816;84;20144;-86
2021/08/11 01:57:25;;;;;;;;;;;;;;;17.29;100.00;100142.77;1681958;84;20150;-86
2021/08/11 01:59:51;;;;;;;;;;;;;;;17.35;100.00;100145.13;1682414;84;20166;-85
2021/08/11 02:02:16;;;;;;;;;;;;;;;17.34;100.00;100136.79;1677092;83;20963;-85
2021/08/11 02:04:42;;;;;;;;;;;;;;;17.36;100.00;100137.44;1683873;83;20131;-85
2021/08/11 02:07:07;;;;;;;;;;;;;;;17.41;100.00;100127.78;1687396;83;21380;-86
2021/08/11 02:09:33;;;;;;;;;;;;;;;17.48;100.00;100135.83;1689047;84;20176;-86
2021/08/11 02:11:59;;;;;;;;;;;;;;;17.46;100.00;100143.19;1692947;83;20142;-85
2021/08/11 02:14:24;;;;;;;;;;;;;;;17.50;100.00;100139.11;1693794;84;20142;-86
2021/08/11 02:16:50;;;;;;;;;;;;;;;17.45;100.00;100136.23;1692187;84;20756;-87
2021/08/11 02:19:15;;;;;;;;;;;;;;;17.56;100.00;100132.14;1691842;84;21060;-87
2021/08/11 02:21:41;;;;;;;;;;;;;;;17.63;100.00;100141.50;1687068;83;20264;-87
2021/08/11 02:24:07;;;;;;;;;;;;;;;17.59;100.00;100139.75;1686128;84;20352;-87
2021/08/11 02:26:52;;;;;;;;;;;;;;;17.61;100.00;100140.89;1691133;84;20178;-88
2021/08/11 02:29:36;;;;;;;;;;;;;;;17.62;100.00;100141.17;1692382;84;20479;-84
2021/08/11 02:32:05;;;;;;;;;;;;;;;17.61;100.00;100140.36;1691024;84;21950;-86
2021/08/11 02:34:53;;;;;;;;;;;;;;;17.66;100.00;100131.74;1686826;84;20185;-85
2021/08/11 02:37:23;;;;;;;;;;;;;;;17.67;100.00;100128.06;1692603;84;20214;-87
2021/08/11 02:40:04;;;;;;;;;;;;;;;17.73;100.00;100134.73;1694588;84;20830;-84
2021/08/11 02:42:50;;;;;;;;;;;;;;;17.75;100.00;100136.67;1692121;84;20182;-85
2021/08/11 02:45:16;;;;;;;;;;;;;;;17.74;100.00;100134.21;1686906;84;21333;-85
2021/08/11 02:47:42;;;;;;;;;;;;;;;17.71;100.00;100134.62;1693662;84;20273;-84
2021/08/11 02:50:08;;;;;;;;;;;;;;;17.64;100.00;100132.47;1682428;84;20125;-85
2021/08/11 02:52:34;;;;;;;;;;;;;;;17.66;100.00;100137.89;1684544;84;20170;-86
2021/08/11 02:55:00;;;;;;;;;;;;;;;17.68;100.00;100140.36;1693912;84;20184;-85
2021/08/11 02:57:25;;;;;;;;;;;;;;;17.65;100.00;100154.12;1690704;83;21830;-84
2021/08/11 02:59:51;;;;;;;;;;;;;;;17.55;100.00;100151.33;1693610;83;20162;-84
2021/08/11 03:02:17;;;;;;;;;;;;;;;17.55;100.00;100145.17;1687781;83;20234;-84
2021/08/11 03:04:42;;;;;;;;;;;;;;;17.52;100.00;100139.72;1688909;83;20114;-84
2021/08/11 03:07:08;;;;;;;;;;;;;;;17.53;100.00;100148.57;1682142;84;20169;-84
2021/08/11 03:09:34;;;;;;;;;;;;;;;17.43;100.00;100144.12;1679899;84;21862;-84
2021/08/11 03:12:00;;;;;;;;;;;;;;;17.40;100.00;100144.00;1685933;84;20269;-84
2021/08/11 03:14:25;;;;;;;;;;;;;;;17.38;100.00;100143.39;1676972;84;20163;-83
2021/08/11 03:16:51;;;;;;;;;;;;;;;17.27;100.00;100157.31;1681789;84;20112;-84
2021/08/11 03:19:16;;;;;;;;;;;;;;;17.22;100.00;100153.39;1683031;84;20162;-84
2021/08/11 03:21:42;;;;;;;;;;;;;;;17.19;100.00;100153.79;1682877;83;21137;-85
2021/08/11 03:24:08;;;;;;;;;;;;;;;17.16;100.00;100148.85;1678849;83;20192;-84
2021/08/11 03:26:33;;;;;;;;;;;;;;;17.14;100.00;100161.58;1678247;84;20159;-85
2021/08/11 03:29:00;;;;;;;;;;;;;;;17.08;100.00;100169.05;1683021;84;21393;-84
2021/08/11 03:31:27;;;;;;;;;;;;;;;17.08;100.00;100171.72;1679474;84;20225;-84
2021/08/11 03:33:53;;;;;;;;;;;;;;;17.14;100.00;100167.44;1675126;84;21196;-85
2021/08/11 03:36:18;;;;;;;;;;;;;;;17.07;100.00;100159.38;1679931;84;20177;-85
2021/08/11 03:38:44;;;;;;;;;;;;;;;17.11;100.00;100163.31;1682824;84;20146;-84
2021/08/11 03:41:10;;;;;;;;;;;;;;;17.02;100.00;100163.98;1687077;83;20634;-85
2021/08/11 03:43:35;;;;;;;;;;;;;;;16.99;100.00;100163.56;1682978;84;20162;-84
2021/08/11 03:46:01;;;;;;;;;;;;;;;16.97;100.00;100158.95;1679455;84;21239;-84
2021/08/11 03:48:26;;;;;;;;;;;;;;;16.98;100.00;100165.42;1682071;83;20461;-85
2021/08/11 03:50:52;;;;;;;;;;;;;;;16.96;100.00;100183.44;1682490;84;20145;-84
2021/08/11 03:53:17;;;;;;;;;;;;;;;16.79;100.00;100182.91;1679936;84;20494;-85
2021/08/11 03:55:43;;;;;;;;;;;;;;;16.69;100.00;100177.13;1680157;83;20155;-85
2021/08/11 03:58:08;;;;;;;;;;;;;;;16.73;100.00;100168.20;1684683;84;21078;-85
2021/08/11 04:00:34;;;;;;;;;;;;;;;16.69;100.00;100165.13;1676728;84;20170;-84
2021/08/11 04:02:59;;;;;;;;;;;;;;;16.77;100.00;100166.29;1681491;84;20490;-86
2021/08/11 04:05:25;;;;;;;;;;;;;;;16.84;100.00;100171.66;1677536;84;20530;-87
2021/08/11 04:07:52;;;;;;;;;;;;;;;16.53;100.00;100181.41;1689510;84;20338;-87
2021/08/11 04:10:18;;;;;;;;;;;;;;;16.58;100.00;100166.98;1668601;84;22131;-85
2021/08/11 04:12:44;;;;;;;;;;;;;;;16.58;100.00;100168.31;1691026;83;20154;-86
2021/08/11 04:15:10;;;;;;;;;;;;;;;16.58;100.00;100159.82;1687091;84;20157;-87
2021/08/11 04:17:35;;;;;;;;;;;;;;;16.63;100.00;100145.91;1692980;83;20225;-88
2021/08/11 04:20:03;;;;;;;;;;;;;;;16.59;100.00;100148.64;1692264;84;20819;-88
2021/08/11 04:22:28;;;;;;;;;;;;;;;16.48;100.00;100141.52;1693727;83;21197;-85
2021/08/11 04:24:55;;;;;;;;;;;;;;;16.55;100.00;100139.41;1689171;83;20459;-86
2021/08/11 04:27:24;;;;;;;;;;;;;;;16.69;100.00;100134.45;1669633;84;20163;-86
2021/08/11 04:29:50;;;;;;;;;;;;;;;16.73;100.00;100133.02;1685723;84;20134;-85
2021/08/11 04:32:19;;;;;;;;;;;;;;;16.70;100.00;100158.75;1689182;84;20121;-84
2021/08/11 04:34:47;;;;;;;;;;;;;;;16.60;100.00;100160.44;1686229;84;21856;-85
2021/08/11 04:37:13;;;;;;;;;;;;;;;16.60;100.00;100152.96;1690482;84;20133;-85
2021/08/11 04:39:39;;;;;;;;;;;;;;;16.66;100.00;100149.52;1691705;84;20194;-85
2021/08/11 04:42:05;;;;;;;;;;;;;;;16.69;100.00;100150.45;1689311;84;20161;-86
2021/08/11 04:44:30;;;;;;;;;;;;;;;16.60;100.00;100164.95;1690227;83;20183;-86
2021/08/11 04:46:58;;;;;;;;;;;;;;;16.60;100.00;100154.30;1690278;84;21093;-86
2021/08/11 04:49:23;;;;;;;;;;;;;;;16.66;100.00;100172.18;1688138;84;20163;-85
2021/08/11 04:51:49;;;;;;;;;;;;;;;16.47;100.00;100172.37;1688695;84;20195;-85
2021/08/11 04:54:15;;;;;;;;;;;;;;;16.55;100.00;100168.73;1689045;84;20142;-85
2021/08/11 04:56:41;;;;;;;;;;;;;;;16.72;100.00;100163.39;1695571;83;20254;-84
2021/08/11 04:59:06;;;;;;;;;;;;;;;16.68;100.00;100171.46;1692080;84;21093;-85
2021/08/11 05:01:32;;;;;;;;;;;;;;;16.62;100.00;100173.58;1693277;83;20352;-86
2021/08/11 05:03:57;;;;;;;;;;;;;;;16.62;100.00;100169.58;1690475;83;20126;-88
2021/08/11 05:06:23;;;;;;;;;;;;;;;16.47;100.00;100177.17;1691313;84;20863;-87
2021/08/11 05:08:49;;;;;;;;;;;;;;;16.50;100.00;100186.13;1684633;83;20208;-87
2021/08/11 05:11:14;;;;;;;;;;;;;;;16.54;100.00;100184.40;1685529;84;21125;-87
2021/08/11 05:13:40;;;;;;;;;;;;;;;16.60;100.00;100176.44;1686331;83;20193;-86
2021/08/11 05:16:05;;;;;;;;;;;;;;;16.65;100.00;100183.85;1687482;84;20158;-87
2021/08/11 05:18:31;;;;;;;;;;;;;;;16.70;100.00;100186.75;1685949;84;20188;-87
2021/08/11 05:20:57;;;;;;;;;;;;;;;16.66;100.00;100192.98;1685839;83;21417;-87
2021/08/11 05:23:22;;;;;;;;;;;;;;;16.77;100.00;100192.14;1691758;83;21082;-86
2021/08/11 05:25:48;;;;;;;;;;;;;;;16.79;100.00;100195.43;1688229;83;20149;-87
2021/08/11 05:28:14;;;;;;;;;;;;;;;16.81;100.00;100198.71;1688253;84;20194;-87
2021/08/11 05:30:40;;;;;;;;;;;;;;;16.81;100.00;100202.23;1681802;84;20156;-87
2021/08/11 05:33:06;;;;;;;;;;;;;;;16.68;100.00;100194.13;1684307;84;20491;-87
2021/08/11 05:35:31;;;;;;;;;;;;;;;16.75;100.00;100196.34;1685060;84;20698;-87
2021/08/11 05:37:57;;;;;;;;;;;;;;;16.85;100.00;100191.45;1687986;84;20161;-87
2021/08/11 05:40:22;;;;;;;;;;;;;;;16.95;100.00;100186.31;1686165;84;20536;-87
2021/08/11 05:42:48;;;;;;;;;;;;;;;17.11;100.00;100187.33;1689292;84;20453;-84
2021/08/11 05:45:13;;;;;;;;;;;;;;;17.06;100.00;100189.78;1692702;83;20139;-85
2021/08/11 05:47:40;;;;;;;;;;;;;;;16.99;100.00;100207.06;1685653;83;21079;-81
2021/08/11 05:50:06;;;;;;;;;;;;;;;16.84;100.00;100203.16;1659581;84;20586;-84
2021/08/11 05:52:31;;;;;;;;;;;;;;;16.71;100.00;100216.41;1683882;84;20320;-85
2021/08/11 05:54:57;;;;;;;;;;;;;;;16.80;100.00;100201.90;1686933;84;20200;-84
2021/08/11 05:57:22;;;;;;;;;;;;;;;16.76;100.00;100205.97;1686816;83;20131;-84
2021/08/11 05:59:49;;;;;;;;;;;;;;;16.82;100.00;100206.52;1686971;83;21078;-84
2021/08/11 06:02:15;;;;;;;;;;;;;;;16.93;100.00;100199.84;1685763;84;20649;-85
2021/08/11 06:04:41;;;;;;;;;;;;;;;17.10;100.00;100204.34;1687498;84;20129;-85
2021/08/11 06:07:09;;;;;;;;;;;;;;;17.08;100.00;100199.73;1687148;84;20463;-84
2021/08/11 06:09:35;;;;;;;;;;;;;;;17.27;100.00;100192.02;1681443;83;20223;-85
2021/08/11 06:12:02;;;;;;;;;;;;;;;17.33;100.00;100199.23;1681372;83;21076;-85
2021/08/11 06:14:27;;;;;;;;;;;;;;;17.35;100.00;100202.52;1684997;83;20155;-85
2021/08/11 06:16:53;;;;;;;;;;;;;;;17.37;100.00;100197.78;1680675;83;20201;-85
2021/08/11 06:19:18;;;;;;;;;;;;;;;17.43;100.00;100210.34;1678428;84;20818;-85
2021/08/11 06:21:44;;;;;;;;;;;;;;;17.45;100.00;100194.12;1679595;83;20737;-85
2021/08/11 06:24:10;;;;;;;;;;;;;;;17.49;100.00;100192.19;1683120;83;21134;-84
2021/08/11 06:26:36;;;;;;;;;;;;;;;17.58;100.00;100196.32;1680014;83;20145;-84
2021/08/11 06:29:01;;;;;;;;;;;;;;;17.54;100.00;100207.11;1682065;83;20146;-83
2021/08/11 06:31:27;;;;;;;;;;;;;;;17.59;100.00;100209.18;1652554;84;20470;-83
2021/08/11 06:33:54;;;;;;;;;;;;;;;17.62;100.00;100211.94;1679905;84;20133;-84
2021/08/11 06:36:22;;;;;;;;;;;;;;;17.68;100.00;100211.14;1676247;84;21795;-83
2021/08/11 06:38:48;;;;;;;;;;;;;;;17.68;100.00;100204.46;1681240;84;20194;-86
2021/08/11 06:41:16;;;;;;;;;;;;;;;17.71;100.00;100208.06;1651698;85;20103;-90
2021/08/11 06:43:42;;;;;;;;;;;;;;;17.78;100.00;100212.11;1681913;83;20144;-87
2021/08/11 06:46:08;;;;;;;;;;;;;;;17.74;100.00;100222.35;1682828;84;20145;-87
2021/08/11 06:48:36;;;;;;;;;;;;;;;17.74;100.00;100209.00;1680336;84;21119;-88
2021/08/11 06:51:01;;;;;;;;;;;;;;;17.79;100.00;100222.59;1677901;84;20210;-88
2021/08/11 06:53:27;;;;;;;;;;;;;;;17.87;100.00;100218.39;1684385;83;20852;-86
2021/08/11 06:55:53;;;;;;;;;;;;;;;17.94;100.00;100222.43;1683430;84;20193;-84
2021/08/11 06:58:18;;;;;;;;;;;;;;;18.00;100.00;100220.81;1679906;84;20157;-85
2021/08/11 07:00:44;;;;;;;;;;;;;;;18.04;100.00;100228.22;1681727;84;21623;-86
2021/08/11 07:03:09;;;;;;;;;;;;;;;18.20;100.00;100218.97;1681123;83;20146;-83
2021/08/11 07:05:35;;;;;;;;;;;;;;;18.36;100.00;100226.28;1685544;83;20747;-83
2021/08/11 07:08:00;;;;;;;;;;;;;;;18.36;100.00;100230.29;1684236;83;20174;-87
2021/08/11 07:10:26;;;;;;;;;;;;;;;18.41;99.52;100230.48;1677825;82;20153;-86
2021/08/11 07:12:52;;;;;;;;;;;;;;;18.52;99.72;100231.72;1679322;84;21131;-88
2021/08/11 07:15:17;;;;;;;;;;;;;;;18.60;99.04;100235.55;1680349;83;20189;-88
2021/08/11 07:17:54;;;;;;;;;;;;;;;18.78;98.48;100233.55;1684139;83;20150;-88
2021/08/11 07:20:20;;;;;;;;;;;;;;;18.95;97.61;100237.45;1683152;83;20168;-86
2021/08/11 07:22:46;;;;;;;;;;;;;;;18.98;96.02;100237.04;1682694;84;20214;-89
2021/08/11 07:25:12;;;;;;;;;;;;;;;19.06;96.05;100233.84;1683085;83;21216;-87
2021/08/11 07:27:38;;;;;;;;;;;;;;;19.10;96.03;100231.06;1683058;83;20172;-88
2021/08/11 07:30:04;;;;;;;;;;;;;;;19.25;95.13;100236.98;1684455;83;20701;-87
2021/08/11 07:32:30;;;;;;;;;;;;;;;19.13;92.39;100244.02;1685780;83;20711;-84
2021/08/11 07:34:55;;;;;;;;;;;;;;;19.09;92.60;100249.48;1682292;83;20236;-91
2021/08/11 07:37:21;;;;;;;;;;;;;;;19.23;92.12;100248.93;1677508;84;21235;-86
2021/08/11 07:39:53;;;;;;;;;;;;;;;19.26;93.22;100245.83;1683816;83;20162;-87
2021/08/11 07:42:19;;;;;;;;;;;;;;;19.40;92.80;100249.28;1677965;84;20164;-89
2021/08/11 07:44:44;;;;;;;;;;;;;;;19.37;89.21;100244.67;1682075;83;20123;-89
2021/08/11 07:47:10;;;;;;;;;;;;;;;19.24;89.29;100251.39;1677328;84;20152;-85
2021/08/11 07:49:35;;;;;;;;;;;;;;;19.34;89.57;100248.27;1679748;83;21888;-87
2021/08/11 07:52:01;;;;;;;;;;;;;;;19.30;89.44;100250.55;1678800;84;20135;-86
2021/08/11 07:54:28;;;;;;;;;;;;;;;19.41;87.43;100251.75;1677844;83;20236;-86
2021/08/11 07:56:55;;;;;;;;;;;;;;;19.27;89.05;100250.98;1680624;83;20204;-87
2021/08/11 07:59:21;;;;;;;;;;;;;;;19.32;88.59;100248.48;1678756;83;20476;-84
2021/08/11 08:01:49;;;;;;;;;;;;;;;19.40;88.47;100246.61;1684912;83;21250;-89
2021/08/11 08:04:15;;;;;;;;;;;;;;;19.56;86.99;100242.12;1651699;84;20145;-87
2021/08/11 08:06:40;;;;;;;;;;;;;;;19.50;87.08;100247.80;1678266;84;20231;-82
2021/08/11 08:09:06;;;;;;;;;;;;;;;19.64;86.39;100244.55;1680094;83;20457;-85
2021/08/11 08:11:33;;;;;;;;;;;;;;;19.79;85.88;100240.79;1681952;84;20130;-85
2021/08/11 08:13:59;;;;;;;;;;;;;;;19.94;85.71;100242.66;1681046;84;20188;-85
2021/08/11 08:16:24;;;;;;;;;;;;;;;20.02;85.90;100246.94;1680409;83;20155;-85
2021/08/11 08:18:50;;;;;;;;;;;;;;;20.01;84.13;100242.11;1681497;83;20132;-89
2021/08/11 08:21:15;;;;;;;;;;;;;;;20.08;83.43;100233.48;1662126;84;20167;-87
2021/08/11 08:23:43;;;;;;;;;;;;;;;20.12;83.15;100233.89;1678628;83;20209;-87
2021/08/11 08:26:08;;;;;;;;;;;;;;;20.27;83.16;100233.56;1653333;84;21108;-85
2021/08/11 08:28:35;;;;;;;;;;;;;;;20.36;81.81;100241.64;1682394;84;20158;-88
2021/08/11 08:31:01;;;;;;;;;;;;;;;20.39;81.55;100235.84;1681718;83;20305;-86
2021/08/11 08:33:26;;;;;;;;;;;;;;;20.55;82.12;100241.70;1683759;83;20155;-86
2021/08/11 08:35:54;;;;;;;;;;;;;;;20.54;81.79;100229.31;1649188;84;20127;-86
2021/08/11 08:38:23;;;;;;;;;;;;;;;20.58;81.99;100227.84;1682904;83;21157;-85
2021/08/11 08:40:50;;;;;;;;;;;;;;;20.58;81.84;100238.57;1681728;83;20167;-85
2021/08/11 08:43:16;;;;;;;;;;;;;;;20.67;81.41;100233.26;1659513;84;20155;-86
2021/08/11 08:45:44;;;;;;;;;;;;;;;20.80;81.49;100231.80;1681083;83;20197;-86
2021/08/11 08:48:09;;;;;;;;;;;;;;;20.97;80.76;100228.52;1677967;84;20114;-86
2021/08/11 08:50:34;;;;;;;;;;;;;;;21.07;79.92;100230.70;1683163;83;21085;-87
2021/08/11 08:53:00;;;;;;;;;;;;;;;21.02;78.51;100230.03;1655926;84;20276;-86
2021/08/11 08:55:26;;;;;;;;;;;;;;;21.21;79.28;100220.60;1680985;83;20598;-92
2021/08/11 08:57:52;;;;;;;;;;;;;;;21.13;78.70;100227.09;1677906;84;20119;-93
2021/08/11 09:00:19;;;;;;;;;;;;;;;21.14;78.67;100220.16;1677511;83;20147;-87
2021/08/11 09:02:47;;;;;;;;;;;;;;;21.20;79.01;100220.33;1680301;84;21314;-89
2021/08/11 09:05:13;;;;;;;;;;;;;;;21.22;78.72;100219.03;1685443;83;20620;-84
2021/08/11 09:07:48;;;;;;;;;;;;;;;21.29;78.02;100212.27;1685896;83;20193;-85
2021/08/11 09:10:20;;;;;;;;;;;;;;;21.45;77.31;100229.09;1679903;83;20345;-91
2021/08/11 09:12:46;;;;;;;;;;;;;;;21.32;75.40;100218.53;1682317;83;20168;-89
2021/08/11 09:15:30;;;;;;;;;;;;;;;21.35;76.54;100215.39;1681660;84;21083;-90
2021/08/11 09:17:58;;;;;;;;;;;;;;;21.47;77.29;100212.23;1678426;83;20389;-95
2021/08/11 09:20:29;;;;;;;;;;;;;;;21.39;75.43;100216.56;1673626;84;20124;-86
2021/08/11 09:22:55;;;;;;;;;;;;;;;21.50;74.69;100218.53;1680130;83;20887;-86
2021/08/11 09:25:24;;;;;;;;;;;;;;;21.66;75.25;100224.33;1678483;83;20637;-91
2021/08/11 09:27:50;;;;;;;;;;;;;;;21.76;74.69;100213.83;1680643;84;20132;-89
2021/08/11 09:30:18;;;;;;;;;;;;;;;21.80;73.43;100207.49;1681354;84;20775;-91
2021/08/11 09:33:03;;;;;;;;;;;;;;;21.86;74.09;100216.80;1681987;84;20179;-89
2021/08/11 09:35:33;;;;;;;;;;;;;;;21.87;73.99;100213.04;1682532;83;20584;-86
2021/08/11 09:38:03;;;;;;;;;;;;;;;22.02;73.38;100217.19;1674076;84;20157;-89
2021/08/11 09:40:31;;;;;;;;;;;;;;;21.92;73.18;100222.30;1661610;84;21060;-86
2021/08/11 09:43:01;;;;;;;;;;;;;;;21.98;73.78;100220.84;1682442;84;20482;-86
2021/08/11 09:45:27;;;;;;;;;;;;;;;22.07;74.30;100225.38;1681949;83;20590;-89
2021/08/11 09:47:55;;;;;;;;;;;;;;;22.16;74.40;100220.50;1676208;84;21057;-89
2021/08/11 09:50:48;;;;;;;;;;;;;;;22.12;73.32;100217.42;1678119;84;20127;-86
2021/08/11 09:53:25;;;;;;;;;;;;;;;22.26;73.73;100225.30;1680406;84;21111;-86
2021/08/11 09:56:04;;;;;;;;;;;;;;;22.14;71.61;100231.48;1682240;83;20664;-85
2021/08/11 09:58:37;;;;;;;;;;;;;;;22.38;69.79;100218.91;1678821;83;20119;-85
2021/08/11 10:01:16;;;;;;;;;;;;;;;22.21;68.37;100221.95;1677753;84;20150;-90
2021/08/11 10:03:55;;;;;;;;;;;;;;;22.18;68.02;100221.88;1675182;83;20132;-90
2021/08/11 10:06:44;;;;;;;;;;;;;;;22.30;66.68;100219.25;1680407;84;21220;-90
2021/08/11 10:09:15;;;;;;;;;;;;;;;22.13;67.81;100209.66;1684407;84;20339;-88
2021/08/11 10:11:56;;;;;;;;;;;;;;;22.16;66.41;100229.38;1681118;83;20171;-86
2021/08/11 10:14:27;;;;;;;;;;;;;;;22.08;68.08;100220.81;1688935;83;20210;-87
2021/08/11 10:16:59;;;;;;;;;;;;;;;22.19;68.44;100214.66;1651123;84;38395;-89
2021/08/11 10:19:27;;;;;;;;;;;;;;;22.34;68.82;100219.59;1660079;84;21802;-87
2021/08/11 10:21:58;;;;;;;;;;;;;;;22.25;67.59;100225.84;1686152;83;20167;-86
2021/08/11 10:24:25;;;;;;;;;;;;;;;22.34;67.52;100233.05;1690491;83;20147;-87
2021/08/11 10:26:53;;;;;;;;;;;;;;;22.42;64.82;100228.70;1686567;83;20522;-89
2021/08/11 10:29:19;;;;;;;;;;;;;;;22.51;64.40;100219.23;1685715;84;20194;-88
2021/08/11 10:31:47;;;;;;;;;;;;;;;22.57;63.84;100223.64;1658443;84;20967;-87
2021/08/11 10:34:15;;;;;;;;;;;;;;;22.56;63.94;100220.68;1695699;83;20199;-89
2021/08/11 10:36:44;;;;;;;;;;;;;;;22.61;63.90;100227.22;1684503;84;20246;-92
2021/08/11 10:39:11;;;;;;;;;;;;;;;22.76;63.22;100224.37;1685029;84;20191;-89
2021/08/11 10:41:37;;;;;;;;;;;;;;;22.64;62.08;100218.67;1690319;84;20137;-90
2021/08/11 10:44:05;;;;;;;;;;;;;;;22.65;61.41;100224.36;1656960;84;21810;-86
2021/08/11 10:46:42;;;;;;;;;;;;;;;22.77;61.84;100234.59;1691453;84;20148;-89
2021/08/11 10:49:08;;;;;;;;;;;;;;;22.70;62.31;100227.16;1686351;82;20155;-89
2021/08/11 10:51:42;;;;;;;;;;;;;;;22.68;60.85;100222.55;1685548;84;20108;-93
2021/08/11 10:54:10;;;;;;;;;;;;;;;22.82;58.94;100242.78;1680660;84;20505;-88
2021/08/11 10:56:50;;;;;;;;;;;;;;;22.86;60.00;100230.50;1684422;84;21267;-84
2021/08/11 10:59:28;;;;;;;;;;;;;;;23.06;59.93;100219.88;1689486;83;20201;-87
2021/08/11 11:01:56;;;;;;;;;;;;;;;22.86;58.34;100225.65;1683012;84;20154;-87
2021/08/11 11:04:37;;;;;;;;;;;;;;;22.99;58.79;100234.00;1657404;84;20194;-84
2021/08/11 11:07:15;;;;;;;;;;;;;;;23.04;57.44;100223.33;1686269;84;20214;-85
2021/08/11 11:09:47;;;;;;;;;;;;;;;23.10;57.55;100231.83;1662284;83;21174;-86
2021/08/11 11:12:21;;;;;;;;;;;;;;;22.89;55.96;100226.52;1651730;86;20474;-85
2021/08/11 11:14:48;;;;;;;;;;;;;;;22.87;55.20;100246.95;1653131;85;20103;-83
2021/08/11 11:17:20;;;;;;;;;;;;;;;22.87;54.49;100240.22;1654507;85;20193;-84
2021/08/11 11:20:08;;;;;;;;;;;;;;;22.95;55.11;100229.63;1650727;85;20154;-84
2021/08/11 11:22:56;;;;;;;;;;;;;;;22.82;55.80;100234.70;1651283;85;21200;-86
2021/08/11 11:25:56;;;;;;;;;;;;;;;22.80;56.42;100234.13;1652859;85;20245;-86
2021/08/11 11:28:42;;;;;;;;;;;;;;;22.84;57.83;100235.31;1655159;85;20148;-86
2021/08/11 11:31:37;;;;;;;;;;;;;;;22.91;57.80;100260.76;1651060;85;20549;-86
2021/08/11 11:34:23;;;;;;;;;;;;;;;22.78;58.74;100236.25;1651034;85;20485;-83
2021/08/11 11:36:59;;;;;;;;;;;;;;;22.75;57.93;100231.33;1649686;86;21141;-83
2021/08/11 11:39:35;;;;;;;;;;;;;;;22.84;55.68;100227.23;1650733;85;20627;-85
2021/08/11 11:42:22;;;;;;;;;;;;;;;23.00;54.84;100225.68;1651765;85;20132;-84
2021/08/11 11:44:57;;;;;;;;;;;;;;;23.08;55.97;100225.34;1654392;85;20577;-86
2021/08/11 11:47:40;;;;;;;;;;;;;;;22.95;54.43;100238.51;1654306;85;20523;-86
2021/08/11 11:50:28;;;;;;;;;;;;;;;23.07;55.71;100244.39;1655980;85;20925;-85
2021/08/11 11:53:04;;;;;;;;;;;;;;;23.05;56.75;100257.30;1654523;85;20198;-85
2021/08/11 11:55:33;;;;;;;;;;;;;;;22.90;55.86;100261.30;1656365;85;20605;-85
2021/08/11 11:58:02;;;;;;;;;;;;;;;22.84;55.76;100244.73;1655799;85;20160;-86
2021/08/11 12:00:30;;;;;;;;;;;;;;;22.81;55.71;100247.05;1658530;85;20204;-86
2021/08/11 12:02:57;;;;;;;;;;;;;;;22.64;55.62;100260.39;1659194;84;21085;-86
2021/08/11 12:05:25;;;;;;;;;;;;;;;22.75;56.55;100246.95;1654178;84;20182;-85
2021/08/11 12:07:51;;;;;;;;;;;;;;;22.67;57.33;100253.20;1653009;85;20144;-85
2021/08/11 12:10:25;;;;;;;;;;;;;;;22.62;57.58;100251.74;1674162;84;20959;-86
2021/08/11 12:13:00;;;;;;;;;;;;;;;22.57;58.51;100239.80;1682195;84;20219;-86
2021/08/11 12:15:26;;;;;;;;;;;;;;;22.48;57.06;100257.37;1677966;83;21127;-86
2021/08/11 12:17:56;;;;;;;;;;;;;;;22.54;57.01;100244.83;1678713;84;20158;-85
2021/08/11 12:20:35;;;;;;;;;;;;;;;22.69;55.83;100261.88;1680179;83;20139;-87
2021/08/11 12:23:03;;;;;;;;;;;;;;;22.69;55.66;100257.84;1679197;83;20340;-87
2021/08/11 12:25:30;;;;;;;;;;;;;;;22.74;54.74;100255.26;1685655;83;20208;-87
2021/08/11 12:28:10;;;;;;;;;;;;;;;22.85;54.63;100257.13;1684156;83;21075;-89
2021/08/11 12:30:36;;;;;;;;;;;;;;;22.96;53.83;100248.74;1594583;88;20217;-87
2021/08/11 12:33:02;;;;;;;;;;;;;;;22.97;54.28;100271.13;1616063;87;20178;-85
2021/08/11 12:35:28;;;;;;;;;;;;;;;23.04;54.76;100255.64;1637607;87;20173;-84
2021/08/11 12:37:55;;;;;;;;;;;;;;;22.97;54.92;100256.31;1639458;87;20179;-84